createdAt,value
2019-01-18T00:00:44.890Z,3.00
2019-01-18T00:03:11.553Z,3.00
2019-01-18T00:05:38.287Z,3.10
2019-01-18T00:08:05.310Z,3.00
2019-01-18T00:10:32.017Z,3.00
2019-01-18T00:12:58.709Z,3.10
2019-01-18T00:15:26.296Z,3.00
2019-01-18T00:17:53.007Z,3.00
2019-01-18T00:20:19.732Z,2.90
2019-01-18T00:22:46.433Z,3.00
2019-01-18T00:25:13.248Z,2.90
2019-01-18T00:27:40.047Z,2.90
2019-01-18T00:30:12.868Z,3.10
2019-01-18T00:32:39.541Z,3.00
2019-01-18T00:35:06.500Z,3.00
2019-01-18T00:37:33.176Z,3.10
2019-01-18T00:39:59.940Z,3.00
2019-01-18T00:42:26.633Z,3.00
2019-01-18T00:44:53.317Z,3.00
2019-01-18T00:47:20.131Z,3.10
2019-01-18T00:49:46.808Z,3.10
2019-01-18T00:52:13.619Z,3.00
2019-01-18T00:54:40.285Z,2.90
2019-01-18T00:57:07.097Z,2.80
2019-01-18T00:59:36.392Z,2.70
2019-01-18T01:02:02.269Z,2.80
2019-01-18T01:04:28.947Z,2.80
2019-01-18T01:06:55.757Z,2.90
2019-01-18T01:09:22.465Z,2.90
2019-01-18T01:11:49.164Z,2.70
2019-01-18T01:14:15.852Z,2.60
2019-01-18T01:16:42.552Z,2.70
2019-01-18T01:19:09.334Z,2.80
2019-01-18T01:21:48.858Z,2.90
2019-01-18T01:24:15.557Z,2.70
2019-01-18T01:26:42.321Z,2.60
2019-01-18T01:29:09.170Z,2.70
2019-01-18T01:31:35.829Z,2.70
2019-01-18T01:34:02.877Z,2.70
2019-01-18T01:36:29.486Z,2.60
2019-01-18T01:38:56.194Z,2.60
2019-01-18T01:41:22.849Z,2.60
2019-01-18T01:43:49.572Z,2.50
2019-01-18T01:46:16.249Z,2.50
2019-01-18T01:48:42.985Z,2.50
2019-01-18T01:51:09.675Z,2.60
2019-01-18T01:53:36.425Z,2.40
2019-01-18T01:56:03.392Z,2.50
2019-01-18T01:58:30.117Z,2.40
2019-01-18T02:00:56.784Z,2.50
2019-01-18T02:03:23.581Z,2.40
2019-01-18T02:05:50.265Z,2.40
2019-01-18T02:08:17.002Z,2.40
2019-01-18T02:10:43.739Z,2.40
2019-01-18T02:13:10.538Z,2.40
2019-01-18T02:15:37.237Z,2.40
2019-01-18T02:18:04.934Z,2.40
2019-01-18T02:20:31.573Z,2.30
2019-01-18T02:22:58.449Z,2.20
2019-01-18T02:28:07.005Z,2.20
2019-01-18T02:30:33.726Z,2.10
2019-01-18T02:33:00.567Z,2.20
2019-01-18T02:35:27.333Z,2.20
2019-01-18T02:37:53.990Z,2.20
2019-01-18T02:40:20.726Z,2.20
2019-01-18T02:42:47.415Z,2.30
2019-01-18T02:45:19.783Z,2.30
2019-01-18T02:47:46.446Z,2.30
2019-01-18T02:50:13.133Z,2.40
2019-01-18T02:52:39.807Z,2.30
2019-01-18T02:55:08.501Z,2.20
2019-01-18T02:57:35.367Z,2.20
2019-01-18T03:00:05.877Z,2.30
2019-01-18T03:02:32.585Z,2.30
2019-01-18T03:04:59.275Z,2.40
2019-01-18T03:07:25.948Z,2.40
2019-01-18T03:09:52.970Z,2.40
2019-01-18T03:12:19.652Z,2.50
2019-01-18T03:14:46.358Z,2.50
2019-01-18T03:17:13.046Z,2.60
2019-01-18T03:19:39.753Z,2.60
2019-01-18T03:22:06.445Z,2.60
2019-01-18T03:24:33.146Z,2.60
2019-01-18T03:26:59.790Z,2.30
2019-01-18T03:29:26.490Z,2.20
2019-01-18T03:31:53.242Z,2.20
2019-01-18T03:34:20.020Z,2.20
2019-01-18T03:36:46.681Z,2.30
2019-01-18T03:39:13.340Z,2.10
2019-01-18T03:41:40.081Z,2.20
2019-01-18T03:44:06.741Z,2.30
2019-01-18T03:46:33.449Z,2.30
2019-01-18T03:49:00.152Z,2.40
2019-01-18T03:51:26.821Z,2.50
2019-01-18T03:53:53.477Z,2.30
2019-01-18T03:56:20.194Z,2.30
2019-01-18T03:58:47.057Z,2.30
2019-01-18T04:01:14.982Z,2.20
2019-01-18T04:03:41.674Z,2.30
2019-01-18T04:06:08.351Z,2.20
2019-01-18T04:08:35.009Z,2.20
2019-01-18T04:11:01.775Z,2.10
2019-01-18T04:13:28.601Z,2.00
2019-01-18T04:15:55.298Z,1.90
2019-01-18T04:18:22.003Z,1.90
2019-01-18T04:20:48.681Z,1.90
2019-01-18T04:23:15.458Z,2.00
2019-01-18T04:25:42.480Z,1.90
2019-01-18T04:28:09.281Z,1.90
2019-01-18T04:30:36.000Z,2.00
2019-01-18T04:33:02.664Z,2.00
2019-01-18T04:35:31.348Z,2.00
2019-01-18T04:37:58.041Z,2.00
2019-01-18T04:40:27.019Z,1.90
2019-01-18T04:42:54.335Z,1.70
2019-01-18T04:45:21.297Z,1.70
2019-01-18T04:47:48.052Z,1.70
2019-01-18T04:50:20.025Z,1.70
2019-01-18T04:52:46.721Z,1.80
2019-01-18T04:55:13.603Z,1.70
2019-01-18T04:57:40.301Z,1.70
2019-01-18T05:00:16.182Z,1.60
2019-01-18T05:02:42.978Z,1.60
2019-01-18T05:05:09.772Z,1.70
2019-01-18T05:07:36.532Z,1.70
2019-01-18T05:10:09.624Z,1.80
2019-01-18T05:12:36.649Z,1.70
2019-01-18T05:15:09.712Z,1.70
2019-01-18T05:17:36.581Z,1.80
2019-01-18T05:20:05.710Z,1.80
2019-01-18T05:22:32.401Z,1.80
2019-01-18T05:24:59.081Z,1.90
2019-01-18T05:27:25.870Z,1.80
2019-01-18T05:29:52.555Z,1.90
2019-01-18T05:32:19.349Z,1.90
2019-01-18T05:34:46.016Z,1.80
2019-01-18T05:37:12.720Z,1.90
2019-01-18T05:39:39.439Z,1.80
2019-01-18T05:42:06.110Z,1.60
2019-01-18T05:44:32.816Z,1.60
2019-01-18T05:46:59.612Z,1.50
2019-01-18T05:49:26.345Z,1.40
2019-01-18T05:51:53.065Z,1.50
2019-01-18T05:54:19.716Z,1.50
2019-01-18T05:56:46.519Z,1.50
2019-01-18T05:59:13.197Z,1.50
2019-01-18T06:01:40.027Z,1.50
2019-01-18T06:04:06.708Z,1.40
2019-01-18T06:06:33.414Z,1.40
2019-01-18T06:09:00.267Z,1.50
2019-01-18T06:11:27.211Z,1.50
2019-01-18T06:13:53.891Z,1.40
2019-01-18T06:16:20.593Z,1.50
2019-01-18T06:18:47.289Z,1.50
2019-01-18T06:21:14.068Z,1.40
2019-01-18T06:23:40.685Z,1.50
2019-01-18T06:26:07.357Z,1.50
2019-01-18T06:28:34.048Z,1.50
2019-01-18T06:31:10.738Z,1.40
2019-01-18T06:33:41.835Z,1.40
2019-01-18T06:36:08.517Z,1.40
2019-01-18T06:38:35.324Z,1.50
2019-01-18T06:41:03.925Z,1.50
2019-01-18T06:43:30.681Z,1.50
2019-01-18T06:45:57.361Z,1.40
2019-01-18T06:48:25.121Z,1.40
2019-01-18T06:50:52.820Z,1.50
2019-01-18T06:53:19.461Z,1.50
2019-01-18T06:55:46.157Z,1.50
2019-01-18T06:58:12.828Z,1.40
2019-01-18T07:00:39.545Z,1.40
2019-01-18T07:03:06.450Z,1.50
2019-01-18T07:05:33.232Z,1.40
2019-01-18T07:07:59.942Z,1.40
2019-01-18T07:10:26.637Z,1.40
2019-01-18T07:12:53.528Z,1.40
2019-01-18T07:15:20.329Z,1.40
2019-01-18T07:17:47.141Z,1.40
2019-01-18T07:20:16.920Z,1.40
2019-01-18T07:22:43.643Z,1.40
2019-01-18T07:25:13.401Z,1.30
2019-01-18T07:27:40.198Z,1.30
2019-01-18T07:30:16.215Z,1.30
2019-01-18T07:32:42.983Z,1.20
2019-01-18T07:35:09.789Z,1.30
2019-01-18T07:37:36.488Z,1.30
2019-01-18T07:40:06.685Z,1.40
2019-01-18T07:42:33.373Z,1.40
2019-01-18T07:45:00.165Z,1.40
2019-01-18T07:47:26.873Z,1.40
2019-01-18T07:49:53.604Z,1.30
2019-01-18T07:52:20.269Z,1.40
2019-01-18T07:54:47.005Z,1.40
2019-01-18T07:57:13.708Z,1.40
2019-01-18T07:59:40.405Z,1.40
2019-01-18T08:02:07.083Z,1.40
2019-01-18T08:04:33.757Z,1.50
2019-01-18T08:07:00.474Z,1.50
2019-01-18T08:09:27.139Z,1.50
2019-01-18T08:11:53.861Z,1.50
2019-01-18T08:14:20.577Z,1.60
2019-01-18T08:16:47.241Z,1.60
2019-01-18T08:19:13.979Z,1.70
2019-01-18T08:21:40.748Z,1.70
2019-01-18T08:24:07.566Z,1.90
2019-01-18T08:26:34.372Z,2.10
2019-01-18T08:29:01.222Z,2.20
2019-01-18T08:31:29.111Z,2.30
2019-01-18T08:33:58.182Z,2.50
2019-01-18T08:36:24.510Z,2.50
2019-01-18T08:38:53.126Z,2.60
2019-01-18T08:41:19.704Z,2.50
2019-01-18T08:43:46.370Z,2.70
2019-01-18T08:46:13.043Z,2.70
2019-01-18T08:48:39.718Z,2.80
2019-01-18T08:51:06.451Z,2.80
2019-01-18T08:53:33.206Z,2.90
2019-01-18T08:56:00.153Z,3.00
2019-01-18T08:58:26.786Z,3.10
2019-01-18T09:00:55.167Z,3.20
2019-01-18T09:03:21.842Z,3.20
2019-01-18T09:05:49.767Z,3.20
2019-01-18T09:08:16.479Z,3.30
2019-01-18T09:10:43.356Z,3.30
2019-01-18T09:13:11.292Z,3.30
2019-01-18T09:15:38.002Z,3.40
2019-01-18T09:18:04.780Z,3.40
2019-01-18T09:20:31.495Z,3.30
2019-01-18T09:22:58.243Z,3.30
2019-01-18T09:25:25.242Z,3.30
2019-01-18T09:27:52.097Z,3.30
2019-01-18T09:30:28.084Z,3.30
2019-01-18T09:32:55.001Z,3.10
2019-01-18T09:35:23.349Z,3.00
2019-01-18T09:37:50.003Z,3.10
2019-01-18T09:40:21.794Z,3.30
2019-01-18T09:42:48.489Z,3.60
2019-01-18T09:45:15.201Z,3.80
2019-01-18T09:47:42.065Z,3.90
2019-01-18T09:50:11.798Z,4.10
2019-01-18T09:52:38.721Z,4.30
2019-01-18T09:55:07.713Z,4.40
2019-01-18T09:57:34.402Z,4.60
2019-01-18T10:00:01.102Z,4.90
2019-01-18T10:02:27.798Z,5.10
2019-01-18T10:04:54.486Z,5.20
2019-01-18T10:07:21.144Z,5.60
2019-01-18T10:09:47.922Z,5.80
2019-01-18T10:12:14.795Z,6.50
2019-01-18T10:14:41.451Z,7.30
2019-01-18T10:17:08.202Z,8.90
2019-01-18T10:19:34.871Z,11.50
2019-01-18T10:22:02.526Z,13.70
2019-01-18T10:24:29.181Z,13.90
2019-01-18T10:26:56.356Z,14.80
2019-01-18T10:29:28.140Z,14.10
2019-01-18T10:31:55.996Z,12.20
2019-01-18T10:34:20.047Z,10.40
2019-01-18T10:36:46.761Z,9.70
2019-01-18T10:39:13.440Z,9.30
2019-01-18T10:41:40.282Z,10.50
2019-01-18T10:44:07.019Z,13.90
2019-01-18T10:46:33.729Z,16.40
2019-01-18T10:49:00.422Z,16.70
2019-01-18T10:51:27.122Z,17.30
2019-01-18T10:53:53.799Z,18.40
2019-01-18T10:56:20.513Z,17.30
2019-01-18T10:58:47.238Z,15.30
2019-01-18T11:01:14.115Z,12.50
2019-01-18T11:03:40.857Z,12.10
2019-01-18T11:06:07.677Z,11.70
2019-01-18T11:08:34.518Z,11.10
2019-01-18T11:11:01.210Z,10.80
2019-01-18T11:13:27.945Z,10.60
2019-01-18T11:15:54.662Z,10.80
2019-01-18T11:18:21.398Z,10.80
2019-01-18T11:20:53.942Z,11.00
2019-01-18T11:23:20.707Z,11.30
2019-01-18T11:25:47.495Z,11.50
2019-01-18T11:28:14.272Z,11.00
2019-01-18T11:30:40.999Z,10.90
2019-01-18T11:33:07.777Z,11.20
2019-01-18T11:35:35.568Z,11.70
2019-01-18T11:38:02.281Z,11.20
2019-01-18T11:40:29.079Z,11.50
2019-01-18T11:42:55.793Z,10.60
2019-01-18T11:45:22.525Z,10.50
2019-01-18T11:47:49.198Z,10.20
2019-01-18T11:50:18.962Z,9.80
2019-01-18T11:52:45.877Z,8.80
2019-01-18T11:55:12.650Z,7.80
2019-01-18T11:57:39.318Z,7.70
2019-01-18T12:00:14.709Z,7.50
2019-01-18T12:02:41.431Z,7.40
2019-01-18T12:05:08.299Z,7.60
2019-01-18T12:07:34.989Z,7.80
2019-01-18T12:10:01.774Z,7.80
2019-01-18T12:12:28.563Z,7.80
2019-01-18T12:14:55.439Z,8.00
2019-01-18T12:17:22.164Z,8.30
2019-01-18T12:19:49.749Z,8.90
2019-01-18T12:22:16.572Z,9.00
2019-01-18T12:24:43.398Z,9.10
2019-01-18T12:27:10.033Z,10.00
2019-01-18T12:29:36.827Z,9.40
2019-01-18T12:32:03.734Z,9.00
2019-01-18T12:34:30.422Z,8.80
2019-01-18T12:36:58.987Z,9.20
2019-01-18T12:39:25.607Z,10.70
2019-01-18T12:41:52.298Z,12.10
2019-01-18T12:44:19.002Z,11.70
2019-01-18T12:46:45.695Z,11.30
2019-01-18T12:49:12.398Z,11.10
2019-01-18T12:51:40.334Z,10.10
2019-01-18T12:54:07.070Z,9.40
2019-01-18T12:56:33.754Z,8.50
2019-01-18T12:59:00.450Z,8.30
2019-01-18T13:01:27.166Z,8.00
2019-01-18T13:03:54.228Z,7.70
2019-01-18T13:06:20.960Z,7.00
2019-01-18T13:08:47.685Z,6.70
2019-01-18T13:11:14.554Z,6.80
2019-01-18T13:13:42.241Z,8.40
2019-01-18T13:16:12.570Z,8.00
2019-01-18T13:18:39.803Z,7.20
2019-01-18T13:21:06.554Z,7.20
2019-01-18T13:23:33.279Z,8.00
2019-01-18T13:25:59.973Z,8.20
2019-01-18T13:28:26.679Z,10.20
2019-01-18T13:30:53.408Z,13.70
2019-01-18T13:33:20.228Z,15.80
2019-01-18T13:35:47.028Z,13.40
2019-01-18T13:38:13.697Z,16.30
2019-01-18T13:40:40.483Z,20.20
2019-01-18T13:43:07.154Z,22.00
2019-01-18T13:45:33.878Z,23.10
2019-01-18T13:48:00.667Z,23.10
2019-01-18T13:50:27.398Z,23.40
2019-01-18T13:52:54.115Z,23.10
2019-01-18T13:55:25.596Z,20.10
2019-01-18T13:57:52.364Z,18.70
2019-01-18T14:00:19.041Z,18.30
2019-01-18T14:02:48.498Z,16.30
2019-01-18T14:05:15.222Z,13.80
2019-01-18T14:07:42.106Z,12.80
2019-01-18T14:10:13.484Z,10.90
2019-01-18T14:12:40.114Z,9.50
2019-01-18T14:15:10.322Z,8.50
2019-01-18T14:17:37.014Z,8.00
2019-01-18T14:20:11.778Z,7.40
2019-01-18T14:22:38.533Z,6.80
2019-01-18T14:25:06.754Z,6.60
2019-01-18T14:27:33.596Z,6.50
2019-01-18T14:30:00.351Z,6.30
2019-01-18T14:32:27.009Z,6.10
2019-01-18T14:34:53.691Z,5.80
2019-01-18T14:37:20.397Z,5.70
2019-01-18T14:39:47.089Z,5.80
2019-01-18T14:42:13.802Z,5.70
2019-01-18T14:44:40.568Z,5.80
2019-01-18T14:47:07.219Z,5.70
2019-01-18T14:49:35.331Z,5.40
2019-01-18T14:52:02.001Z,5.40
2019-01-18T14:54:28.834Z,5.50
2019-01-18T14:56:56.461Z,5.30
2019-01-18T14:59:23.206Z,5.30
2019-01-18T15:01:49.850Z,5.20
2019-01-18T15:04:16.764Z,5.30
2019-01-18T15:06:44.400Z,5.20
2019-01-18T15:09:11.150Z,5.00
2019-01-18T15:11:37.821Z,5.00
2019-01-18T15:14:04.645Z,4.90
2019-01-18T15:16:31.871Z,4.80
2019-01-18T15:18:58.494Z,4.90
2019-01-18T15:21:25.454Z,4.90
2019-01-18T15:23:52.094Z,4.70
2019-01-18T15:26:20.812Z,4.50
2019-01-18T15:28:47.518Z,4.20
2019-01-18T15:31:14.666Z,4.10
2019-01-18T15:33:41.407Z,4.00
2019-01-18T15:36:08.209Z,3.90
2019-01-18T15:38:34.923Z,3.80
2019-01-18T15:41:01.888Z,3.80
2019-01-18T15:43:29.390Z,3.60
2019-01-18T15:45:56.206Z,3.60
2019-01-18T15:48:22.902Z,3.60
2019-01-18T15:50:49.594Z,3.60
2019-01-18T15:53:16.283Z,3.30
2019-01-18T15:55:43.066Z,3.20
2019-01-18T15:58:09.729Z,3.00
2019-01-18T16:00:42.559Z,2.80
2019-01-18T16:03:15.630Z,2.80
2019-01-18T16:05:39.016Z,2.60
2019-01-18T16:08:05.993Z,2.60
2019-01-18T16:10:32.881Z,2.60
2019-01-18T16:12:59.585Z,2.70
2019-01-18T16:15:29.886Z,2.70
2019-01-18T16:17:56.605Z,2.40
2019-01-18T16:20:24.237Z,2.60
2019-01-18T16:22:50.938Z,2.70
2019-01-18T16:25:23.150Z,2.60
2019-01-18T16:27:49.962Z,2.60
2019-01-18T16:30:19.083Z,2.60
2019-01-18T16:32:45.775Z,2.40
2019-01-18T16:35:14.069Z,2.50
2019-01-18T16:37:41.013Z,2.20
2019-01-18T16:40:13.902Z,2.10
2019-01-18T16:42:42.082Z,2.00
2019-01-18T16:45:10.711Z,1.90
2019-01-18T16:47:37.406Z,1.80
2019-01-18T16:50:07.609Z,1.60
2019-01-18T16:52:34.306Z,1.50
2019-01-18T16:55:01.036Z,1.70
2019-01-18T16:57:27.760Z,1.70
2019-01-18T16:59:55.497Z,1.60
2019-01-18T17:02:22.249Z,1.50
2019-01-18T17:04:49.181Z,1.50
2019-01-18T17:07:15.879Z,1.40
2019-01-18T17:09:42.565Z,1.40
2019-01-18T17:12:09.329Z,1.40
2019-01-18T17:14:36.142Z,1.40
2019-01-18T17:17:03.131Z,1.50
2019-01-18T17:19:29.914Z,1.50
2019-01-18T17:21:56.599Z,1.40
2019-01-18T17:24:23.284Z,1.40
2019-01-18T17:26:50.091Z,1.50
2019-01-18T17:29:16.783Z,1.40
2019-01-18T17:31:43.490Z,1.30
2019-01-18T17:34:10.186Z,1.40
2019-01-18T17:36:37.106Z,1.20
2019-01-18T17:39:10.406Z,1.20
2019-01-18T17:41:43.283Z,1.20
2019-01-18T17:44:30.230Z,1.20
2019-01-18T17:47:18.665Z,1.20
2019-01-18T17:50:21.960Z,1.40
2019-01-18T17:53:07.934Z,1.20
2019-01-18T17:55:40.990Z,1.00
2019-01-18T17:58:35.438Z,1.10
2019-01-18T18:01:27.032Z,1.10
2019-01-18T18:04:03.473Z,1.00
2019-01-18T18:06:49.133Z,1.10
2019-01-18T18:09:19.718Z,0.80
2019-01-18T18:11:50.018Z,0.80
2019-01-18T18:14:23.273Z,0.80
2019-01-18T18:16:56.743Z,0.80
2019-01-18T18:19:38.678Z,0.80
2019-01-18T18:22:32.037Z,0.90
2019-01-18T18:25:30.081Z,0.90
2019-01-18T18:28:15.438Z,1.00
2019-01-18T18:31:01.143Z,0.80
2019-01-18T18:33:54.008Z,0.80
2019-01-18T18:36:43.008Z,0.70
2019-01-18T18:39:22.429Z,0.60
2019-01-18T18:42:14.430Z,0.70
2019-01-18T18:45:01.624Z,0.70
2019-01-18T18:47:34.712Z,0.70
2019-01-18T18:50:34.197Z,0.60
2019-01-18T18:53:33.832Z,0.60
2019-01-18T18:56:34.648Z,0.60
2019-01-18T18:59:26.070Z,0.80
2019-01-18T19:02:02.454Z,0.70
2019-01-18T19:05:01.764Z,0.80
2019-01-18T19:08:01.738Z,0.80
2019-01-18T19:10:40.549Z,0.80
2019-01-18T19:13:10.854Z,0.80
2019-01-18T19:15:56.325Z,0.60
2019-01-18T19:18:57.448Z,0.80
2019-01-18T19:21:49.586Z,0.90
2019-01-18T19:24:23.062Z,0.90
2019-01-18T19:27:10.199Z,0.80
2019-01-18T19:29:43.290Z,0.70
2019-01-18T19:32:13.602Z,0.60
2019-01-18T19:35:08.051Z,0.50
2019-01-18T19:37:47.318Z,0.60
2019-01-18T19:40:17.594Z,0.70
2019-01-18T19:43:00.169Z,0.70
2019-01-18T19:45:42.702Z,0.60
2019-01-18T19:48:18.846Z,0.30
2019-01-18T19:50:54.965Z,0.30
2019-01-18T19:53:31.131Z,0.50
2019-01-18T19:56:07.405Z,0.40
2019-01-18T19:58:58.539Z,0.50
2019-01-18T20:01:37.879Z,0.50
2019-01-18T20:04:28.709Z,0.40
2019-01-18T20:07:05.156Z,0.30
2019-01-18T20:09:50.598Z,0.30
2019-01-18T20:12:30.467Z,0.20
2019-01-18T20:15:06.742Z,0.30
2019-01-18T20:17:54.950Z,0.20
2019-01-18T20:20:37.658Z,0.10
2019-01-18T20:23:36.678Z,0.00
2019-01-18T20:26:18.917Z,0.00
2019-01-18T20:28:58.530Z,-0.30
2019-01-18T20:31:50.379Z,-0.40
2019-01-18T20:34:35.687Z,-0.40
2019-01-18T20:37:08.763Z,-0.40
2019-01-18T20:40:04.998Z,-0.50
2019-01-18T20:42:38.713Z,-0.50
2019-01-18T20:45:26.082Z,-0.50
2019-01-18T20:48:08.497Z,-0.40
2019-01-18T20:50:42.702Z,-0.30
2019-01-18T20:53:19.104Z,-0.20
2019-01-18T20:56:04.711Z,-0.20
2019-01-18T20:58:35.105Z,-0.30
2019-01-18T21:01:22.285Z,-0.30
2019-01-18T21:04:01.738Z,-0.40
2019-01-18T21:06:47.221Z,-0.40
2019-01-18T21:09:23.479Z,-0.40
2019-01-18T21:11:53.799Z,-0.50
2019-01-18T21:14:24.075Z,-0.50
2019-01-18T21:16:57.150Z,-0.50
2019-01-18T21:19:44.559Z,-0.80
2019-01-18T21:22:31.856Z,-0.70
2019-01-18T21:25:03.453Z,-0.70
2019-01-18T21:28:09.483Z,-0.60
2019-01-18T21:30:58.510Z,-0.60
2019-01-18T21:33:49.593Z,-0.50
2019-01-18T21:36:28.574Z,-0.40
2019-01-18T21:39:01.569Z,-0.50
2019-01-18T21:41:34.517Z,-0.50
2019-01-18T21:44:17.189Z,-0.40
2019-01-18T21:46:50.435Z,-0.30
2019-01-18T21:49:27.018Z,-0.30
2019-01-18T21:52:00.291Z,-0.50
2019-01-18T21:54:45.483Z,-0.70
2019-01-18T21:57:18.435Z,-0.90
2019-01-18T22:00:04.227Z,-0.80
2019-01-18T22:02:49.603Z,-0.90
2019-01-18T22:05:22.944Z,-0.90
2019-01-18T22:08:13.362Z,-0.70
2019-01-18T22:10:43.734Z,-0.60
2019-01-18T22:13:26.261Z,-0.70
2019-01-18T22:16:13.894Z,-0.60
2019-01-18T22:19:13.226Z,-0.80
2019-01-18T22:21:55.304Z,-0.90
2019-01-18T22:24:25.714Z,-1.00
2019-01-18T22:26:59.030Z,-1.00
2019-01-18T22:29:48.001Z,-1.00
2019-01-18T22:32:28.214Z,-1.00
2019-01-18T22:35:01.527Z,-1.00
2019-01-18T22:37:41.187Z,-0.90
2019-01-18T22:40:19.290Z,-0.90
2019-01-18T22:43:09.774Z,-1.00
2019-01-18T22:45:48.973Z,-1.10
2019-01-18T22:48:22.007Z,-1.00
2019-01-18T22:51:09.200Z,-0.80
2019-01-18T22:53:56.429Z,-0.90
2019-01-18T22:56:35.753Z,-1.00
2019-01-18T22:59:25.860Z,-0.90
2019-01-18T23:01:59.549Z,-0.90
2019-01-18T23:04:44.973Z,-0.90
2019-01-18T23:07:32.147Z,-1.00
2019-01-18T23:10:15.168Z,-1.10
2019-01-18T23:12:57.831Z,-0.90
2019-01-18T23:15:59.131Z,-0.90
2019-01-18T23:18:44.833Z,-1.10
2019-01-18T23:21:29.673Z,-1.10
2019-01-18T23:24:03.077Z,-1.00
2019-01-18T23:26:56.294Z,-1.10
2019-01-18T23:29:32.776Z,-1.30
2019-01-18T23:32:24.593Z,-1.40
2019-01-18T23:35:02.855Z,-1.30
2019-01-18T23:37:41.860Z,-1.30
2019-01-18T23:40:42.426Z,-1.30
2019-01-18T23:43:24.730Z,-1.30
2019-01-18T23:46:18.242Z,-1.40
2019-01-18T23:49:12.175Z,-1.40
2019-01-18T23:52:01.010Z,-1.40
2019-01-18T23:54:58.390Z,-1.30
2019-01-18T23:57:37.215Z,-1.40
